createdAt,value
2023-03-24T00:01:43.823Z,99612.47
2023-03-24T00:04:10.332Z,99602.25
2023-03-24T00:06:36.850Z,99603.22
2023-03-24T00:09:04.146Z,99602.75
2023-03-24T00:11:34.193Z,99593.59
2023-03-24T00:14:02.624Z,99590.28
2023-03-24T00:16:29.285Z,99587.25
2023-03-24T00:18:55.970Z,99586.91
2023-03-24T00:21:25.971Z,99587.47
2023-03-24T00:23:58.582Z,99586.19
2023-03-24T00:26:25.863Z,99573.88
2023-03-24T00:28:52.954Z,99579.28
2023-03-24T00:31:21.965Z,99567.19
2023-03-24T00:33:50.894Z,99558.41
2023-03-24T00:36:22.967Z,99559.94
2023-03-24T00:38:49.981Z,99561.09
2023-03-24T00:41:19.718Z,99562.75
2023-03-24T00:43:48.099Z,99556.38
2023-03-24T00:46:27.363Z,99563.81
2023-03-24T00:49:02.785Z,99549.38
2023-03-24T00:51:31.535Z,99537.75
2023-03-24T00:53:59.370Z,99542.91
2023-03-24T00:56:27.554Z,99533.91
2023-03-24T00:58:57.569Z,99528.84
2023-03-24T01:01:27.250Z,99523.56
2023-03-24T01:03:54.160Z,99527.22
2023-03-24T01:06:22.393Z,99509.50
2023-03-24T01:08:50.556Z,99514.09
2023-03-24T01:11:17.859Z,99516.06
2023-03-24T01:13:44.303Z,99500.59
2023-03-24T01:16:10.890Z,99516.06
2023-03-24T01:18:40.680Z,99504.31
2023-03-24T01:21:09.315Z,99489.91
2023-03-24T01:23:36.142Z,99493.88
2023-03-24T01:26:07.844Z,99495.53
2023-03-24T01:28:40.563Z,99489.66
2023-03-24T01:31:09.778Z,99490.72
2023-03-24T01:33:37.911Z,99489.91
2023-03-24T01:36:06.492Z,99485.31
2023-03-24T01:38:33.488Z,99488.84
2023-03-24T01:41:00.245Z,99474.19
2023-03-24T01:43:31.120Z,99477.69
2023-03-24T01:46:02.380Z,99471.25
2023-03-24T01:48:36.858Z,99476.06
2023-03-24T01:51:28.039Z,99475.00
2023-03-24T01:54:01.234Z,99465.97
2023-03-24T01:56:33.944Z,99464.44
2023-03-24T01:59:06.491Z,99472.09
2023-03-24T02:01:44.589Z,99474.19
2023-03-24T02:04:53.993Z,99511.38
2023-03-24T02:07:36.448Z,99517.25
2023-03-24T02:10:09.446Z,99532.63
2023-03-24T02:12:36.714Z,99539.91
2023-03-24T02:15:06.649Z,99538.25
2023-03-24T02:18:04.705Z,99546.41
2023-03-24T02:20:53.989Z,99553.09
2023-03-24T02:23:45.367Z,99564.13
2023-03-24T02:26:40.076Z,99575.13
2023-03-24T02:29:44.114Z,99578.38
2023-03-24T02:32:47.641Z,99578.59
2023-03-24T02:35:35.281Z,99579.50
2023-03-24T02:38:24.552Z,99593.56
2023-03-24T02:41:21.886Z,99598.00
2023-03-24T02:44:30.631Z,99601.03
2023-03-24T02:47:06.210Z,99608.84
2023-03-24T02:49:47.541Z,99631.91
2023-03-24T02:52:26.192Z,99637.06
2023-03-24T02:55:01.723Z,99619.94
2023-03-24T02:57:36.028Z,99633.72
2023-03-24T03:00:59.353Z,99641.00
2023-03-24T03:03:50.595Z,99638.00
2023-03-24T03:06:25.859Z,99634.34
2023-03-24T03:08:55.748Z,99640.47
2023-03-24T03:11:22.406Z,99650.56
2023-03-24T03:13:54.460Z,99664.03
2023-03-24T03:16:25.348Z,99651.16
2023-03-24T03:18:56.812Z,99665.28
2023-03-24T03:21:28.874Z,99671.41
2023-03-24T03:24:08.468Z,99667.91
2023-03-24T03:26:36.288Z,99673.97
2023-03-24T03:29:16.650Z,99690.81
2023-03-24T03:32:08.141Z,99699.75
2023-03-24T03:34:40.239Z,99687.16
2023-03-24T03:37:21.372Z,99680.09
2023-03-24T03:40:13.126Z,99677.13
2023-03-24T03:42:45.432Z,99693.69
2023-03-24T03:45:13.069Z,99682.50
2023-03-24T03:47:40.665Z,99708.13
2023-03-24T03:50:09.468Z,99679.09
2023-03-24T03:52:38.926Z,99698.81
2023-03-24T03:55:07.197Z,99700.03
2023-03-24T03:57:36.127Z,99707.44
2023-03-24T04:00:23.580Z,99708.25
2023-03-24T04:03:17.653Z,99715.94
2023-03-24T04:05:53.618Z,99719.25
2023-03-24T04:08:50.171Z,99721.84
2023-03-24T04:11:50.924Z,99730.16
2023-03-24T04:14:54.257Z,99729.34
2023-03-24T04:17:38.232Z,99734.34
2023-03-24T04:20:19.865Z,99732.63
2023-03-24T04:23:22.739Z,99731.13
2023-03-24T04:25:58.671Z,99739.06
2023-03-24T04:28:58.093Z,99753.41
2023-03-24T04:31:33.974Z,99758.56
2023-03-24T04:34:15.576Z,99763.69
2023-03-24T04:36:54.883Z,99763.34
2023-03-24T04:39:28.130Z,99766.09
2023-03-24T04:41:58.643Z,99766.09
2023-03-24T04:44:27.796Z,99769.16
2023-03-24T04:47:25.742Z,99768.72
2023-03-24T04:50:11.143Z,99767.50
2023-03-24T04:52:42.579Z,99772.88
2023-03-24T04:55:35.788Z,99795.50
2023-03-24T04:58:02.421Z,99788.47
2023-03-24T05:00:28.931Z,99788.28
2023-03-24T05:02:55.424Z,99793.31
2023-03-24T05:05:26.707Z,99798.06
2023-03-24T05:07:53.372Z,99803.22
2023-03-24T05:10:22.026Z,99808.19
2023-03-24T05:12:55.093Z,99809.81
2023-03-24T05:15:43.063Z,99808.75
2023-03-24T05:18:25.541Z,99820.56
2023-03-24T05:20:53.571Z,99806.06
2023-03-24T05:23:21.638Z,99814.34
2023-03-24T05:25:50.167Z,99823.44
2023-03-24T05:28:18.592Z,99824.25
2023-03-24T05:30:47.952Z,99826.34
2023-03-24T05:33:34.686Z,99840.69
2023-03-24T05:36:02.074Z,99838.00
2023-03-24T05:38:29.491Z,99843.72
2023-03-24T05:40:58.491Z,99835.66
2023-03-24T05:43:29.181Z,99850.31
2023-03-24T05:46:07.982Z,99837.09
2023-03-24T05:48:34.987Z,99856.34
2023-03-24T05:51:13.601Z,99851.38
2023-03-24T05:53:40.836Z,99842.88
2023-03-24T05:56:28.582Z,99860.22
2023-03-24T05:59:04.129Z,99853.81
2023-03-24T06:02:01.638Z,99861.72
2023-03-24T06:04:51.620Z,99868.06
2023-03-24T06:07:22.084Z,99871.19
2023-03-24T06:09:50.709Z,99873.88
2023-03-24T06:12:17.250Z,99879.66
2023-03-24T06:14:53.234Z,99876.81
2023-03-24T06:17:21.354Z,99879.50
2023-03-24T06:19:51.334Z,99894.81
2023-03-24T06:22:27.120Z,99889.47
2023-03-24T06:24:56.538Z,99894.00
2023-03-24T06:27:26.018Z,99897.50
2023-03-24T06:29:53.839Z,99903.69
2023-03-24T06:32:21.061Z,99903.06
2023-03-24T06:34:47.639Z,99906.38
2023-03-24T06:37:28.500Z,99896.59
2023-03-24T06:39:55.796Z,99908.81
2023-03-24T06:42:27.138Z,99903.28
2023-03-24T06:44:53.608Z,99910.69
2023-03-24T06:47:20.127Z,99918.16
2023-03-24T06:49:46.906Z,99913.38
2023-03-24T06:52:13.328Z,99922.69
2023-03-24T06:54:42.180Z,99920.22
2023-03-24T06:57:09.323Z,99930.75
2023-03-24T06:59:54.783Z,99926.19
2023-03-24T07:02:21.808Z,99945.00
2023-03-24T07:04:50.520Z,99934.44
2023-03-24T07:10:25.135Z,99936.31
2023-03-24T07:12:51.695Z,99934.06
2023-03-24T07:15:18.298Z,99938.78
2023-03-24T07:17:45.106Z,99947.44
2023-03-24T07:20:17.762Z,99946.81
2023-03-24T07:22:55.080Z,99952.84
2023-03-24T07:25:44.734Z,99956.81
2023-03-24T07:28:24.569Z,99973.13
2023-03-24T07:30:53.253Z,99972.25
2023-03-24T07:33:24.244Z,99972.66
2023-03-24T07:35:54.759Z,99966.88
2023-03-24T07:38:21.540Z,99974.69
2023-03-24T07:40:50.877Z,99979.16
2023-03-24T07:43:17.914Z,99983.59
2023-03-24T07:46:02.227Z,99994.34
2023-03-24T07:48:28.974Z,99993.94
2023-03-24T07:50:55.831Z,99993.31
2023-03-24T07:53:47.651Z,99987.72
2023-03-24T07:56:21.505Z,99991.78
2023-03-24T07:58:53.673Z,99990.84
2023-03-24T08:01:30.057Z,100009.59
2023-03-24T08:03:59.881Z,100004.16
2023-03-24T08:06:45.530Z,99996.34
2023-03-24T08:09:13.041Z,100004.00
2023-03-24T08:11:39.695Z,100011.19
2023-03-24T08:14:06.447Z,100007.94
2023-03-24T08:16:32.853Z,100013.28
2023-03-24T08:18:59.328Z,100014.47
2023-03-24T08:21:26.064Z,100023.59
2023-03-24T08:23:52.555Z,100022.72
2023-03-24T08:26:19.206Z,100027.81
2023-03-24T08:28:45.658Z,100031.88
2023-03-24T08:31:12.178Z,100024.06
2023-03-24T08:33:38.664Z,100028.44
2023-03-24T08:36:06.656Z,100034.16
2023-03-24T08:38:33.091Z,100038.22
2023-03-24T08:41:06.482Z,100036.81
2023-03-24T08:43:35.389Z,100036.72
2023-03-24T08:46:02.795Z,100038.44
2023-03-24T08:48:29.870Z,100047.44
2023-03-24T08:50:56.739Z,100040.13
2023-03-24T08:53:23.154Z,100037.53
2023-03-24T08:55:49.882Z,100042.28
2023-03-24T08:58:19.662Z,100051.72
2023-03-24T09:00:47.554Z,100046.47
2023-03-24T09:03:18.528Z,100052.72
2023-03-24T09:05:46.458Z,100044.97
2023-03-24T09:08:14.453Z,100047.94
2023-03-24T09:10:42.697Z,100055.34
2023-03-24T09:13:09.679Z,100059.44
2023-03-24T09:15:36.636Z,100049.94
2023-03-24T09:18:03.183Z,100057.31
2023-03-24T09:20:29.592Z,100054.72
2023-03-24T09:22:56.122Z,100066.38
2023-03-24T09:25:23.314Z,100070.03
2023-03-24T09:27:50.361Z,100066.03
2023-03-24T09:30:18.598Z,100068.72
2023-03-24T09:32:46.024Z,100076.88
2023-03-24T09:35:13.501Z,100078.41
2023-03-24T09:37:40.714Z,100072.13
2023-03-24T09:40:07.933Z,100087.19
2023-03-24T09:42:41.344Z,100086.59
2023-03-24T09:45:15.578Z,100088.16
2023-03-24T09:48:01.077Z,100083.50
2023-03-24T09:50:33.233Z,100085.13
2023-03-24T09:53:07.556Z,100086.16
2023-03-24T09:55:39.196Z,100099.00
2023-03-24T09:58:09.563Z,100091.56
2023-03-24T10:00:37.396Z,100098.66
2023-03-24T10:03:15.895Z,100098.06
2023-03-24T10:05:55.308Z,100107.03
2023-03-24T10:08:32.170Z,100108.41
2023-03-24T10:11:04.954Z,100105.41
2023-03-24T10:14:19.411Z,100115.31
2023-03-24T10:16:57.737Z,100115.00
2023-03-24T10:19:42.145Z,100109.97
2023-03-24T10:22:27.300Z,100112.81
2023-03-24T10:25:12.190Z,100114.31
2023-03-24T10:28:01.538Z,100128.22
2023-03-24T10:30:31.924Z,100121.97
2023-03-24T10:32:58.444Z,100119.47
2023-03-24T10:35:29.844Z,100125.34
2023-03-24T10:37:59.648Z,100115.69
2023-03-24T10:40:33.439Z,100125.44
2023-03-24T10:43:07.033Z,100122.72
2023-03-24T10:45:40.664Z,100114.63
2023-03-24T10:48:09.341Z,100120.31
2023-03-24T10:50:42.731Z,100117.91
2023-03-24T10:53:18.499Z,100112.50
2023-03-24T10:55:45.580Z,100109.81
2023-03-24T10:58:20.916Z,100100.38
2023-03-24T11:00:47.905Z,100104.84
2023-03-24T11:03:26.270Z,100116.16
2023-03-24T11:06:01.894Z,100111.91
2023-03-24T11:08:31.288Z,100111.00
2023-03-24T11:10:57.848Z,100112.97
2023-03-24T11:13:33.760Z,100107.53
2023-03-24T11:16:14.584Z,100106.00
2023-03-24T11:19:01.523Z,100118.94
2023-03-24T11:21:30.697Z,100116.84
2023-03-24T11:24:01.843Z,100117.09
2023-03-24T11:26:33.853Z,100126.03
2023-03-24T11:29:04.208Z,100109.09
2023-03-24T11:31:38.368Z,100111.47
2023-03-24T11:34:20.144Z,100116.25
2023-03-24T11:36:53.374Z,100118.63
2023-03-24T11:39:31.645Z,100116.41
2023-03-24T11:42:10.296Z,100127.09
2023-03-24T11:44:39.486Z,100117.91
2023-03-24T11:47:16.049Z,100131.69
2023-03-24T11:50:10.826Z,100131.81
2023-03-24T11:53:10.956Z,100125.31
2023-03-24T11:55:50.809Z,100128.38
2023-03-24T11:58:31.459Z,100123.56
2023-03-24T12:01:11.098Z,100139.47
2023-03-24T12:03:49.676Z,100130.97
2023-03-24T12:06:28.392Z,100122.97
2023-03-24T12:09:10.047Z,100133.94
2023-03-24T12:11:45.401Z,100120.63
2023-03-24T12:14:19.169Z,100126.59
2023-03-24T12:16:52.882Z,100120.28
2023-03-24T12:19:43.157Z,100120.03
2023-03-24T12:22:35.870Z,100121.81
2023-03-24T12:25:31.613Z,100116.72
2023-03-24T12:28:10.368Z,100112.75
2023-03-24T12:30:56.167Z,100119.78
2023-03-24T12:33:59.124Z,100111.91
2023-03-24T12:36:47.363Z,100108.69
2023-03-24T12:39:32.912Z,100102.47
2023-03-24T12:42:13.601Z,100104.25
2023-03-24T12:44:50.277Z,100107.09
2023-03-24T12:47:37.841Z,100104.03
2023-03-24T12:50:26.204Z,100105.19
2023-03-24T12:53:08.530Z,100105.81
2023-03-24T12:55:45.561Z,100109.91
2023-03-24T12:58:23.806Z,100106.97
2023-03-24T13:01:01.358Z,100106.97
2023-03-24T13:03:41.467Z,100097.06
2023-03-24T13:06:24.201Z,100103.81
2023-03-24T13:09:10.959Z,100102.00
2023-03-24T13:11:47.680Z,100094.72
2023-03-24T13:14:20.879Z,100107.69
2023-03-24T13:16:47.941Z,100100.13
2023-03-24T13:19:24.548Z,100094.50
2023-03-24T13:21:54.901Z,100092.97
2023-03-24T13:24:22.506Z,100102.16
2023-03-24T13:27:05.561Z,100085.88
2023-03-24T13:29:55.142Z,100098.59
2023-03-24T13:32:22.346Z,100086.75
2023-03-24T13:34:57.046Z,100088.75
2023-03-24T13:37:28.658Z,100083.22
2023-03-24T13:39:58.933Z,100096.75
2023-03-24T13:42:37.101Z,100079.69
2023-03-24T13:45:07.302Z,100094.75
2023-03-24T13:48:12.434Z,100081.81
2023-03-24T13:51:00.188Z,100087.31
2023-03-24T13:53:43.494Z,100076.38
2023-03-24T13:56:12.747Z,100074.94
2023-03-24T13:58:47.417Z,100088.56
2023-03-24T14:01:31.447Z,100079.66
2023-03-24T14:04:19.622Z,100083.31
2023-03-24T14:06:54.457Z,100075.56
2023-03-24T14:09:30.575Z,100089.44
2023-03-24T14:12:03.588Z,100080.41
2023-03-24T14:14:34.270Z,100078.88
2023-03-24T14:17:17.093Z,100076.28
2023-03-24T14:20:08.484Z,100081.78
2023-03-24T14:22:39.698Z,100076.03
2023-03-24T14:25:22.564Z,100065.09
2023-03-24T14:27:55.384Z,100075.66
2023-03-24T14:30:38.003Z,100069.56
2023-03-24T14:33:05.088Z,100072.84
2023-03-24T14:35:45.667Z,100075.06
2023-03-24T14:38:15.450Z,100062.13
2023-03-24T14:40:45.294Z,100069.75
2023-03-24T14:43:23.784Z,100068.13
2023-03-24T14:45:56.607Z,100062.16
2023-03-24T14:48:25.699Z,100063.69
2023-03-24T14:50:54.876Z,100063.22
2023-03-24T14:53:23.312Z,100057.56
2023-03-24T14:55:50.671Z,100054.72
2023-03-24T14:58:30.723Z,100053.66
2023-03-24T15:01:07.131Z,100052.03
2023-03-24T15:04:00.280Z,100047.31
2023-03-24T15:06:27.183Z,100051.47
2023-03-24T15:08:58.451Z,100036.88
2023-03-24T15:11:34.303Z,100037.94
2023-03-24T15:14:04.428Z,100024.97
2023-03-24T15:16:33.527Z,100038.84
2023-03-24T15:19:06.077Z,100030.75
2023-03-24T15:21:38.356Z,100041.91
2023-03-24T15:24:22.925Z,100032.03
2023-03-24T15:26:52.703Z,100018.38
2023-03-24T15:29:19.216Z,100031.44
2023-03-24T15:31:45.714Z,100033.94
2023-03-24T15:34:34.260Z,100021.69
2023-03-24T15:37:03.575Z,100028.75
2023-03-24T15:39:36.115Z,100016.75
2023-03-24T15:42:14.250Z,100026.16
2023-03-24T15:44:41.677Z,100030.16
2023-03-24T15:47:20.200Z,100030.63
2023-03-24T15:49:56.954Z,100037.94
2023-03-24T15:52:25.313Z,100019.69
2023-03-24T15:54:54.787Z,100024.75
2023-03-24T15:57:23.216Z,100021.44
2023-03-24T15:59:51.411Z,100019.56
2023-03-24T16:02:25.200Z,100034.94
2023-03-24T16:05:07.907Z,100024.22
2023-03-24T16:07:40.521Z,100011.09
2023-03-24T16:10:26.751Z,100008.38
2023-03-24T16:12:53.729Z,100014.16
2023-03-24T16:15:20.240Z,100027.19
2023-03-24T16:17:47.698Z,100018.22
2023-03-24T16:20:20.788Z,100026.25
2023-03-24T16:22:47.393Z,100011.53
2023-03-24T16:25:14.456Z,100015.63
2023-03-24T16:27:41.141Z,100011.59
2023-03-24T16:30:21.425Z,100009.00
2023-03-24T16:32:47.935Z,100007.56
2023-03-24T16:35:14.578Z,100025.28
2023-03-24T16:37:42.476Z,100022.09
2023-03-24T16:40:22.314Z,99997.28
2023-03-24T16:42:48.771Z,100028.13
2023-03-24T16:45:15.564Z,100024.38
2023-03-24T16:47:42.109Z,100021.84
2023-03-24T16:50:29.356Z,100021.84
2023-03-24T16:52:56.292Z,100018.31
2023-03-24T16:55:23.053Z,100013.63
2023-03-24T16:57:49.520Z,100025.81
2023-03-24T17:00:16.378Z,100019.13
2023-03-24T17:02:49.039Z,100020.16
2023-03-24T17:05:20.224Z,100016.88
2023-03-24T17:07:46.909Z,100003.75
2023-03-24T17:10:13.429Z,100005.03
2023-03-24T17:12:40.258Z,100008.66
2023-03-24T17:15:07.745Z,100009.59
2023-03-24T17:17:34.966Z,100010.66
2023-03-24T17:20:03.961Z,100007.72
2023-03-24T17:22:31.687Z,100009.97
2023-03-24T17:24:58.254Z,100005.63
2023-03-24T17:27:24.896Z,100002.78
2023-03-24T17:29:51.568Z,100011.66
2023-03-24T17:32:19.928Z,100001.38
2023-03-24T17:34:48.164Z,100001.38
2023-03-24T17:37:14.598Z,100005.25
2023-03-24T17:39:41.077Z,100003.00
2023-03-24T17:42:07.549Z,99995.59
2023-03-24T17:44:34.086Z,100005.91
2023-03-24T17:47:00.762Z,99996.03
2023-03-24T17:49:27.154Z,100000.75
2023-03-24T17:51:53.631Z,99994.31
2023-03-24T17:54:20.380Z,99995.59
2023-03-24T17:56:47.011Z,99996.03
2023-03-24T17:59:13.521Z,99989.63
2023-03-24T18:01:40.332Z,99995.50
2023-03-24T18:04:07.083Z,99991.03
2023-03-24T18:06:33.686Z,100002.31
2023-03-24T18:09:00.285Z,100004.03
2023-03-24T18:11:26.755Z,100013.06
2023-03-24T18:13:53.195Z,100005.41
2023-03-24T18:16:21.852Z,100015.59
2023-03-24T18:18:50.274Z,100004.19
2023-03-24T18:21:17.680Z,100010.66
2023-03-24T18:23:44.359Z,100005.47
2023-03-24T18:26:11.123Z,100022.72
2023-03-24T18:28:38.895Z,100013.56
2023-03-24T18:31:10.573Z,100001.88
2023-03-24T18:33:37.035Z,100017.47
2023-03-24T18:36:05.515Z,100003.31
2023-03-24T18:38:31.961Z,100004.00
2023-03-24T18:41:06.378Z,100004.44
2023-03-24T18:43:37.448Z,100001.50
2023-03-24T18:46:05.513Z,100017.91
2023-03-24T18:48:32.022Z,99998.06
2023-03-24T18:50:58.543Z,99999.72
2023-03-24T18:53:25.125Z,100006.59
2023-03-24T18:55:51.944Z,100006.06
2023-03-24T18:58:19.271Z,100005.41
2023-03-24T19:00:54.840Z,100013.94
2023-03-24T19:03:23.479Z,100013.13
2023-03-24T19:05:54.050Z,100013.78
2023-03-24T19:08:21.667Z,100015.66
2023-03-24T19:10:48.720Z,100012.16
2023-03-24T19:13:16.816Z,100007.00
2023-03-24T19:15:47.040Z,99985.84
2023-03-24T19:18:14.385Z,99989.00
2023-03-24T19:20:41.947Z,99985.94
2023-03-24T19:23:08.916Z,99996.22
2023-03-24T19:25:35.389Z,99992.31
2023-03-24T19:28:01.803Z,99997.88
2023-03-24T19:30:28.392Z,100004.13
2023-03-24T19:32:54.868Z,100001.25
2023-03-24T19:35:21.556Z,99997.91
2023-03-24T19:37:48.214Z,99997.09
2023-03-24T19:40:15.582Z,100002.88
2023-03-24T19:42:44.738Z,99996.50
2023-03-24T19:45:13.621Z,99996.28
2023-03-24T19:47:40.409Z,99991.72
2023-03-24T19:50:08.070Z,99998.16
2023-03-24T19:52:35.414Z,99993.19
2023-03-24T19:55:02.361Z,99988.47
2023-03-24T19:57:30.509Z,99983.97
2023-03-24T19:59:57.404Z,99989.00
2023-03-24T20:02:24.956Z,99988.75
2023-03-24T20:04:55.100Z,99987.28
2023-03-24T20:07:23.235Z,99989.72
2023-03-24T20:09:49.872Z,99976.06
2023-03-24T20:12:16.432Z,99960.31
2023-03-24T20:14:42.870Z,99977.38
2023-03-24T20:17:17.803Z,99969.34
2023-03-24T20:19:45.162Z,99972.22
2023-03-24T20:22:12.255Z,99982.75
2023-03-24T20:24:38.898Z,99968.53
2023-03-24T20:27:08.704Z,99971.06
2023-03-24T20:29:35.628Z,99964.03
2023-03-24T20:32:02.180Z,99978.16
2023-03-24T20:34:28.595Z,99973.81
2023-03-24T20:36:55.991Z,99970.75
2023-03-24T20:39:23.015Z,99973.00
2023-03-24T20:41:49.403Z,99966.69
2023-03-24T20:44:15.862Z,99967.81
2023-03-24T20:46:43.717Z,99956.16
2023-03-24T20:49:14.194Z,99968.00
2023-03-24T20:51:41.077Z,99959.06
2023-03-24T20:54:08.068Z,99968.25
2023-03-24T20:56:35.018Z,99958.16
2023-03-24T20:59:02.638Z,99963.16
2023-03-24T21:01:35.933Z,99965.75
2023-03-24T21:04:09.001Z,99965.13
2023-03-24T21:06:39.063Z,99956.88
2023-03-24T21:09:05.936Z,99964.81
2023-03-24T21:11:32.891Z,99957.78
2023-03-24T21:14:00.185Z,99958.88
2023-03-24T21:16:27.198Z,99955.41
2023-03-24T21:18:54.584Z,99966.84
2023-03-24T21:21:21.323Z,99964.56
2023-03-24T21:23:48.428Z,99968.31
2023-03-24T21:26:17.205Z,99966.84
2023-03-24T21:28:44.770Z,99940.09
2023-03-24T21:31:19.285Z,99944.25
2023-03-24T21:33:46.059Z,99942.41
2023-03-24T21:36:13.517Z,99960.81
2023-03-24T21:38:40.538Z,99945.72
2023-03-24T21:41:07.872Z,99960.00
2023-03-24T21:43:35.134Z,99951.50
2023-03-24T21:46:03.816Z,99954.19
2023-03-24T21:48:32.777Z,99963.75
2023-03-24T21:51:00.208Z,99960.81
2023-03-24T21:53:26.779Z,99952.34
2023-03-24T21:56:04.401Z,99954.22
2023-03-24T21:58:32.818Z,99960.50
2023-03-24T22:01:00.034Z,99953.94
2023-03-24T22:03:27.054Z,99959.75
2023-03-24T22:05:56.354Z,99965.91
2023-03-24T22:08:26.538Z,99966.75
2023-03-24T22:11:00.911Z,99960.31
2023-03-24T22:13:28.736Z,99962.84
2023-03-24T22:15:56.888Z,99958.50
2023-03-24T22:18:25.059Z,99967.63
2023-03-24T22:21:03.647Z,99958.50
2023-03-24T22:23:36.609Z,99950.84
2023-03-24T22:26:06.756Z,99956.03
2023-03-24T22:28:34.893Z,99957.25
2023-03-24T22:31:05.994Z,99963.88
2023-03-24T22:33:32.592Z,99957.31
2023-03-24T22:36:00.743Z,99952.31
2023-03-24T22:38:28.301Z,99949.44
2023-03-24T22:40:59.461Z,99957.72
2023-03-24T22:43:27.108Z,99950.84
2023-03-24T22:45:53.652Z,99949.59
2023-03-24T22:48:20.501Z,99948.31
2023-03-24T22:50:47.819Z,99958.47
2023-03-24T22:53:14.401Z,99953.28
2023-03-24T22:55:42.147Z,99957.69
2023-03-24T22:58:08.878Z,99957.88
2023-03-24T23:00:35.549Z,99954.56
2023-03-24T23:03:02.025Z,99955.53
2023-03-24T23:05:28.604Z,99972.75
2023-03-24T23:07:55.103Z,99968.84
2023-03-24T23:10:21.592Z,99969.44
2023-03-24T23:12:51.647Z,99958.28
2023-03-24T23:15:18.588Z,99960.56
2023-03-24T23:17:45.784Z,99965.59
2023-03-24T23:20:12.800Z,99968.47
2023-03-24T23:22:39.414Z,99960.75
2023-03-24T23:25:06.895Z,99963.06
2023-03-24T23:27:35.021Z,99946.75
2023-03-24T23:30:01.548Z,99955.28
2023-03-24T23:32:28.049Z,99954.28
2023-03-24T23:34:54.532Z,99954.69
2023-03-24T23:37:20.949Z,99959.19
2023-03-24T23:39:50.138Z,99962.94
2023-03-24T23:42:17.025Z,99963.19
2023-03-24T23:44:43.513Z,99960.50
2023-03-24T23:47:09.955Z,99953.88
2023-03-24T23:49:36.455Z,99961.06
2023-03-24T23:52:02.913Z,99953.97
2023-03-24T23:54:29.306Z,99963.41
2023-03-24T23:56:56.136Z,99964.22
2023-03-24T23:59:22.619Z,99962.78
